createdAt,value
2022-11-04T00:02:17.488Z,11.69
2022-11-04T00:04:46.601Z,11.64
2022-11-04T00:07:29.320Z,11.83
2022-11-04T00:09:58.228Z,11.88
2022-11-04T00:12:26.146Z,11.83
2022-11-04T00:15:15.848Z,11.91
2022-11-04T00:17:45.267Z,11.91
2022-11-04T00:20:31.243Z,12.08
2022-11-04T00:23:17.582Z,11.91
2022-11-04T00:26:00.341Z,11.99
2022-11-04T00:28:45.438Z,11.81
2022-11-04T00:31:31.474Z,12.16
2022-11-04T00:34:02.002Z,12.08
2022-11-04T00:36:30.956Z,11.99
2022-11-04T00:39:00.234Z,12.09
2022-11-04T00:41:30.424Z,12.12
2022-11-04T00:44:00.892Z,12.12
2022-11-04T00:46:31.507Z,12.15
2022-11-04T00:49:02.191Z,12.25
2022-11-04T00:51:31.156Z,11.99
2022-11-04T00:54:00.104Z,12.05
2022-11-04T00:56:30.103Z,12.08
2022-11-04T00:59:01.495Z,11.99
2022-11-04T01:01:30.675Z,11.59
2022-11-04T01:04:01.095Z,11.51
2022-11-04T01:06:29.988Z,10.85
2022-11-04T01:09:00.381Z,10.76
2022-11-04T01:11:30.901Z,11.03
2022-11-04T01:13:59.961Z,11.30
2022-11-04T01:16:29.793Z,11.22
2022-11-04T01:19:00.050Z,11.07
2022-11-04T01:21:31.283Z,10.59
2022-11-04T01:24:02.012Z,10.67
2022-11-04T01:26:31.770Z,10.81
2022-11-04T01:29:01.987Z,10.95
2022-11-04T01:31:32.523Z,10.95
2022-11-04T01:34:02.038Z,10.97
2022-11-04T01:36:32.380Z,10.82
2022-11-04T01:39:02.056Z,11.14
2022-11-04T01:41:33.370Z,11.37
2022-11-04T01:44:04.893Z,11.06
2022-11-04T01:46:40.109Z,11.01
2022-11-04T01:49:26.907Z,11.16
2022-11-04T01:52:02.453Z,11.21
2022-11-04T01:54:32.294Z,10.90
2022-11-04T01:57:05.010Z,10.82
2022-11-04T01:59:38.642Z,10.95
2022-11-04T02:02:08.779Z,10.79
2022-11-04T02:04:38.527Z,10.83
2022-11-04T02:07:11.518Z,11.04
2022-11-04T02:09:41.551Z,11.06
2022-11-04T02:12:28.080Z,10.99
2022-11-04T02:14:58.774Z,10.89
2022-11-04T02:17:38.308Z,10.70
2022-11-04T02:20:22.575Z,10.85
2022-11-04T02:23:21.426Z,10.54
2022-11-04T02:26:31.977Z,10.55
2022-11-04T02:29:27.400Z,10.65
2022-11-04T02:32:07.094Z,10.30
2022-11-04T02:34:44.513Z,10.35
2022-11-04T02:37:20.547Z,10.35
2022-11-04T02:39:56.173Z,10.57
2022-11-04T02:42:31.458Z,10.64
2022-11-04T02:45:09.714Z,10.63
2022-11-04T02:47:42.976Z,10.23
2022-11-04T02:50:16.023Z,10.41
2022-11-04T02:52:51.408Z,10.33
2022-11-04T02:55:25.285Z,10.32
2022-11-04T02:57:58.881Z,10.59
2022-11-04T03:00:30.798Z,10.05
2022-11-04T03:03:05.483Z,10.01
2022-11-04T03:05:37.536Z,10.14
2022-11-04T03:08:10.615Z,10.25
2022-11-04T03:10:43.915Z,9.90
2022-11-04T03:13:15.719Z,9.85
2022-11-04T03:15:51.461Z,10.03
2022-11-04T03:18:31.227Z,9.84
2022-11-04T03:21:04.129Z,9.09
2022-11-04T03:23:33.760Z,8.53
2022-11-04T03:26:10.318Z,8.88
2022-11-04T03:28:44.867Z,8.91
2022-11-04T03:31:24.555Z,9.12
2022-11-04T03:33:55.631Z,9.00
2022-11-04T03:36:25.253Z,8.84
2022-11-04T03:38:54.518Z,9.36
2022-11-04T03:41:30.926Z,9.43
2022-11-04T03:43:59.774Z,9.46
2022-11-04T03:46:30.444Z,9.82
2022-11-04T03:49:01.030Z,9.96
2022-11-04T03:51:29.983Z,9.98
2022-11-04T03:53:59.864Z,9.81
2022-11-04T03:56:52.113Z,9.77
2022-11-04T03:59:41.268Z,9.22
2022-11-04T04:02:18.278Z,8.78
2022-11-04T04:04:57.441Z,8.90
2022-11-04T04:07:32.973Z,9.21
2022-11-04T04:10:28.035Z,9.10
2022-11-04T04:13:01.233Z,8.48
2022-11-04T04:15:39.469Z,8.32
2022-11-04T04:18:13.935Z,8.80
2022-11-04T04:20:47.330Z,8.91
2022-11-04T04:23:37.059Z,8.96
2022-11-04T04:26:27.792Z,8.79
2022-11-04T04:28:58.528Z,8.82
2022-11-04T04:31:48.441Z,8.88
2022-11-04T04:34:21.357Z,8.65
2022-11-04T04:36:55.717Z,8.60
2022-11-04T04:39:46.496Z,8.70
2022-11-04T04:42:32.905Z,8.75
2022-11-04T04:45:07.609Z,8.86
2022-11-04T04:47:41.760Z,8.91
2022-11-04T04:50:14.294Z,8.77
2022-11-04T04:52:49.186Z,8.86
2022-11-04T04:55:19.124Z,8.46
2022-11-04T04:57:48.490Z,8.67
2022-11-04T05:00:20.157Z,8.91
2022-11-04T05:02:50.325Z,8.46
2022-11-04T05:05:20.951Z,8.11
2022-11-04T05:07:49.920Z,8.90
2022-11-04T05:10:19.568Z,8.88
2022-11-04T05:13:06.332Z,9.30
2022-11-04T05:15:36.051Z,9.35
2022-11-04T05:18:05.203Z,9.54
2022-11-04T05:20:35.575Z,9.48
2022-11-04T05:23:04.531Z,9.44
2022-11-04T05:25:33.449Z,9.52
2022-11-04T05:28:03.810Z,9.58
2022-11-04T05:30:32.918Z,9.43
2022-11-04T05:33:04.912Z,9.46
2022-11-04T05:35:36.008Z,9.60
2022-11-04T05:38:05.042Z,9.47
2022-11-04T05:40:33.991Z,9.67
2022-11-04T05:43:03.343Z,10.15
2022-11-04T05:45:32.513Z,10.04
2022-11-04T05:48:03.040Z,9.91
2022-11-04T05:50:34.244Z,10.28
2022-11-04T05:53:05.194Z,9.93
2022-11-04T05:55:34.137Z,10.24
2022-11-04T05:58:03.833Z,10.03
2022-11-04T06:00:32.780Z,9.13
2022-11-04T06:03:02.257Z,9.90
2022-11-04T06:05:32.235Z,9.39
2022-11-04T06:08:02.105Z,9.52
2022-11-04T06:10:32.602Z,10.43
2022-11-04T06:13:02.099Z,10.33
2022-11-04T06:15:31.050Z,10.46
2022-11-04T06:18:00.236Z,10.59
2022-11-04T06:20:29.792Z,10.53
2022-11-04T06:22:59.029Z,11.20
2022-11-04T06:25:28.794Z,10.43
2022-11-04T06:28:02.055Z,11.24
2022-11-04T06:30:30.983Z,11.30
2022-11-04T06:32:59.878Z,11.13
2022-11-04T06:35:30.035Z,11.59
2022-11-04T06:37:59.412Z,11.56
2022-11-04T06:40:28.356Z,12.07
2022-11-04T06:42:57.472Z,12.85
2022-11-04T06:45:37.012Z,13.14
2022-11-04T06:48:07.500Z,13.49
2022-11-04T06:50:36.421Z,13.49
2022-11-04T06:53:06.374Z,13.43
2022-11-04T06:55:35.491Z,13.91
2022-11-04T06:58:04.510Z,14.62
2022-11-04T07:15:35.918Z,15.33
2022-11-04T07:18:05.039Z,15.80
2022-11-04T07:20:34.080Z,14.53
2022-11-04T07:23:03.364Z,14.56
2022-11-04T07:25:32.335Z,15.46
2022-11-04T07:28:02.534Z,13.84
2022-11-04T07:30:31.592Z,14.89
2022-11-04T07:33:02.001Z,15.44
2022-11-04T07:35:31.012Z,15.26
2022-11-04T07:37:59.865Z,15.63
2022-11-04T07:40:29.597Z,15.53
2022-11-04T07:42:58.434Z,15.17
2022-11-04T07:45:37.976Z,16.16
2022-11-04T07:48:08.595Z,15.39
2022-11-04T07:50:41.038Z,15.14
2022-11-04T07:53:12.177Z,14.46
2022-11-04T07:55:43.581Z,14.55
2022-11-04T07:58:12.589Z,15.00
2022-11-04T08:00:41.658Z,15.04
2022-11-04T08:03:12.388Z,14.48
2022-11-04T08:05:41.477Z,15.38
2022-11-04T08:08:10.299Z,16.06
2022-11-04T08:10:39.138Z,15.54
2022-11-04T08:13:08.256Z,16.86
2022-11-04T08:15:37.546Z,16.35
2022-11-04T08:18:06.425Z,17.52
2022-11-04T08:20:36.658Z,17.42
2022-11-04T08:23:05.466Z,17.78
2022-11-04T08:25:34.337Z,17.07
2022-11-04T08:28:03.742Z,17.60
2022-11-04T08:30:32.530Z,16.17
2022-11-04T08:33:01.965Z,17.62
2022-11-04T08:35:31.357Z,16.96
2022-11-04T08:38:02.088Z,17.66
2022-11-04T08:40:30.926Z,18.16
2022-11-04T08:42:59.768Z,17.39
2022-11-04T08:45:33.430Z,17.75
2022-11-04T08:48:05.643Z,16.88
2022-11-04T08:50:34.768Z,17.67
2022-11-04T08:53:06.400Z,17.02
2022-11-04T08:55:35.917Z,17.00
2022-11-04T08:58:05.041Z,17.17
2022-11-04T09:00:34.456Z,18.20
2022-11-04T09:03:04.363Z,16.88
2022-11-04T09:05:34.158Z,17.68
2022-11-04T09:08:06.020Z,17.69
2022-11-04T09:10:34.905Z,18.15
2022-11-04T09:13:03.799Z,18.15
2022-11-04T09:15:32.699Z,18.83
2022-11-04T09:18:02.556Z,18.45
2022-11-04T09:20:32.179Z,19.37
2022-11-04T09:23:01.089Z,20.00
2022-11-04T09:25:33.062Z,20.59
2022-11-04T09:28:02.357Z,19.98
2022-11-04T09:30:31.232Z,20.00
2022-11-04T09:33:00.389Z,20.58
2022-11-04T09:35:29.920Z,18.22
2022-11-04T09:38:02.049Z,19.69
2022-11-04T09:40:36.720Z,20.61
2022-11-04T09:43:18.673Z,20.54
2022-11-04T09:45:47.726Z,19.76
2022-11-04T09:48:31.563Z,19.00
2022-11-04T09:51:03.864Z,19.81
2022-11-04T09:53:41.892Z,19.10
2022-11-04T09:56:18.220Z,19.83
2022-11-04T09:58:48.312Z,19.41
2022-11-04T10:01:29.047Z,19.61
2022-11-04T10:04:17.630Z,19.05
2022-11-04T10:07:06.712Z,20.31
2022-11-04T10:09:52.487Z,20.25
2022-11-04T10:12:43.876Z,20.61
2022-11-04T10:15:44.679Z,19.93
2022-11-04T10:18:27.872Z,21.51
2022-11-04T10:21:06.699Z,22.94
2022-11-04T10:23:42.893Z,21.94
2022-11-04T10:26:18.688Z,21.62
2022-11-04T10:28:55.741Z,21.05
2022-11-04T10:31:26.343Z,21.59
2022-11-04T10:33:59.638Z,22.73
2022-11-04T10:36:28.917Z,22.02
2022-11-04T10:38:59.600Z,22.97
2022-11-04T10:41:34.024Z,23.03
2022-11-04T10:44:07.577Z,22.18
2022-11-04T10:46:47.169Z,21.75
2022-11-04T10:50:00.064Z,22.15
2022-11-04T10:52:35.076Z,22.03
2022-11-04T10:55:03.964Z,23.03
2022-11-04T10:57:33.017Z,23.28
2022-11-04T11:00:05.550Z,22.74
2022-11-04T11:02:48.254Z,22.71
2022-11-04T11:05:25.031Z,22.37
2022-11-04T11:07:56.223Z,22.01
2022-11-04T11:10:27.792Z,21.69
2022-11-04T11:12:58.905Z,20.96
2022-11-04T11:15:32.837Z,21.70
2022-11-04T11:18:15.092Z,21.49
2022-11-04T11:20:49.177Z,21.87
2022-11-04T11:23:40.584Z,22.24
2022-11-04T11:26:11.351Z,22.88
2022-11-04T11:28:41.684Z,21.29
2022-11-04T11:31:23.356Z,21.87
2022-11-04T11:33:56.186Z,22.99
2022-11-04T11:36:27.451Z,21.86
2022-11-04T11:39:04.212Z,22.11
2022-11-04T11:41:39.666Z,24.20
2022-11-04T11:44:24.229Z,24.57
2022-11-04T11:46:59.536Z,23.01
2022-11-04T11:49:30.509Z,21.46
2022-11-04T11:52:26.077Z,22.68
2022-11-04T11:54:59.162Z,22.27
2022-11-04T11:57:37.118Z,23.86
2022-11-04T12:03:07.813Z,23.22
2022-11-04T12:12:01.019Z,24.29
2022-11-04T12:14:48.676Z,23.47
2022-11-04T12:17:32.443Z,23.52
2022-11-04T12:20:18.922Z,22.84
2022-11-04T12:22:55.421Z,23.41
2022-11-04T12:25:31.198Z,23.85
2022-11-04T12:28:09.033Z,25.03
2022-11-04T12:30:48.803Z,25.37
2022-11-04T12:33:29.646Z,25.44
2022-11-04T12:36:09.733Z,23.72
2022-11-04T12:39:04.040Z,23.19
2022-11-04T12:42:06.881Z,22.12
2022-11-04T12:44:35.151Z,22.42
2022-11-04T12:47:19.972Z,22.28
2022-11-04T12:50:05.728Z,21.84
2022-11-04T12:52:49.948Z,21.65
2022-11-04T12:55:29.980Z,21.73
2022-11-04T12:58:08.265Z,22.29
2022-11-04T13:00:43.015Z,21.82
2022-11-04T13:03:17.548Z,22.11
2022-11-04T13:05:51.408Z,21.98
2022-11-04T13:08:26.935Z,21.80
2022-11-04T13:11:02.271Z,21.28
2022-11-04T13:13:37.480Z,20.59
2022-11-04T13:16:11.844Z,20.58
2022-11-04T13:18:42.660Z,20.37
2022-11-04T13:21:14.901Z,19.98
2022-11-04T13:23:51.869Z,19.58
2022-11-04T13:26:20.748Z,19.60
2022-11-04T13:29:07.345Z,19.87
2022-11-04T13:31:48.828Z,19.97
2022-11-04T13:34:28.675Z,19.78
2022-11-04T13:54:59.968Z,18.98
2022-11-04T13:57:31.563Z,18.73
2022-11-04T14:00:23.755Z,18.34
2022-11-04T14:02:53.571Z,18.13
2022-11-04T14:06:06.217Z,17.86
2022-11-04T14:08:35.983Z,17.77
2022-11-04T14:11:11.839Z,18.16
2022-11-04T14:13:46.372Z,18.58
2022-11-04T14:16:43.278Z,18.21
2022-11-04T14:19:56.635Z,18.02
2022-11-04T14:22:38.862Z,18.50
2022-11-04T14:25:28.915Z,18.06
2022-11-04T14:28:02.129Z,18.42
2022-11-04T14:30:50.938Z,18.24
2022-11-04T14:33:30.373Z,18.11
2022-11-04T14:36:17.304Z,18.81
2022-11-04T14:38:53.348Z,18.60
2022-11-04T14:41:30.662Z,18.94
2022-11-04T14:44:04.132Z,18.90
2022-11-04T14:46:42.236Z,18.79
2022-11-04T14:49:38.328Z,18.56
2022-11-04T14:52:08.238Z,17.92
2022-11-04T14:54:38.491Z,18.19
2022-11-04T14:57:16.655Z,18.41
2022-11-04T14:59:47.723Z,18.59
2022-11-04T15:02:20.886Z,18.68
2022-11-04T15:04:54.094Z,18.64
2022-11-04T15:07:34.056Z,18.26
2022-11-04T15:10:05.260Z,18.44
2022-11-04T15:12:52.086Z,18.28
2022-11-04T15:15:36.191Z,17.21
2022-11-04T15:18:08.980Z,17.56
2022-11-04T15:20:46.272Z,16.74
2022-11-04T15:23:18.983Z,16.74
2022-11-04T15:25:49.848Z,16.37
2022-11-04T15:28:22.375Z,16.38
2022-11-04T15:31:02.399Z,16.89
2022-11-04T15:33:33.966Z,17.11
2022-11-04T15:36:03.725Z,17.30
2022-11-04T15:38:33.599Z,17.52
2022-11-04T15:41:17.876Z,17.57
2022-11-04T15:43:47.444Z,17.30
2022-11-04T15:46:22.544Z,16.72
2022-11-04T15:49:06.712Z,16.50
2022-11-04T15:51:38.797Z,16.86
2022-11-04T15:54:18.722Z,17.05
2022-11-04T15:56:52.686Z,17.29
2022-11-04T15:59:24.575Z,17.25
2022-11-04T16:01:55.369Z,17.34
2022-11-04T16:04:27.455Z,17.14
2022-11-04T16:07:24.557Z,16.89
2022-11-04T16:09:55.232Z,16.96
2022-11-04T16:12:29.599Z,17.00
2022-11-04T16:14:59.906Z,17.06
2022-11-04T16:17:32.435Z,17.10
2022-11-04T16:20:04.157Z,16.98
2022-11-04T16:22:37.122Z,16.73
2022-11-04T16:25:10.264Z,16.99
2022-11-04T16:27:39.877Z,17.27
2022-11-04T16:30:18.108Z,17.11
2022-11-04T16:32:49.700Z,16.81
2022-11-04T16:35:22.400Z,16.62
2022-11-04T16:37:51.909Z,16.63
2022-11-04T16:40:21.931Z,16.72
2022-11-04T16:42:51.529Z,16.82
2022-11-04T16:45:27.525Z,16.90
2022-11-04T16:47:58.930Z,16.88
2022-11-04T16:50:28.328Z,16.99
2022-11-04T16:52:57.427Z,17.01
2022-11-04T16:55:27.308Z,16.55
2022-11-04T16:58:00.531Z,16.73
2022-11-04T17:00:32.938Z,16.74
2022-11-04T17:03:13.577Z,16.53
2022-11-04T17:05:42.415Z,16.57
2022-11-04T17:08:13.344Z,16.71
2022-11-04T17:10:46.428Z,16.62
2022-11-04T17:13:18.219Z,16.60
2022-11-04T17:15:47.250Z,16.49
2022-11-04T17:18:19.023Z,16.22
2022-11-04T17:20:50.955Z,16.15
2022-11-04T17:23:20.584Z,15.81
2022-11-04T17:25:50.128Z,16.13
2022-11-04T17:28:18.945Z,16.14
2022-11-04T17:30:47.784Z,16.06
2022-11-04T17:33:19.705Z,16.19
2022-11-04T17:35:51.356Z,16.10
2022-11-04T17:38:20.859Z,16.18
2022-11-04T17:41:07.502Z,16.19
2022-11-04T17:43:53.692Z,16.32
2022-11-04T17:46:39.048Z,16.12
2022-11-04T17:49:13.214Z,16.21
2022-11-04T17:51:43.778Z,16.56
2022-11-04T17:54:13.144Z,16.60
2022-11-04T17:56:42.370Z,16.45
2022-11-04T17:59:13.677Z,16.20
2022-11-04T18:01:43.914Z,16.21
2022-11-04T18:04:16.799Z,16.18
2022-11-04T18:06:45.883Z,16.04
2022-11-04T18:09:16.216Z,15.86
2022-11-04T18:12:04.508Z,15.82
2022-11-04T18:14:33.448Z,15.57
2022-11-04T18:17:03.264Z,15.40
2022-11-04T18:19:33.540Z,15.22
2022-11-04T18:22:02.367Z,15.35
2022-11-04T18:24:31.417Z,15.57
2022-11-04T18:27:00.851Z,15.80
2022-11-04T18:29:29.760Z,15.32
2022-11-04T18:31:58.691Z,15.33
2022-11-04T18:34:27.530Z,15.14
2022-11-04T18:37:00.856Z,15.09
2022-11-04T18:39:29.657Z,14.81
2022-11-04T18:41:58.513Z,14.60
2022-11-04T18:44:27.339Z,14.30
2022-11-04T18:46:56.206Z,14.09
2022-11-04T18:49:25.262Z,14.11
2022-11-04T18:51:54.366Z,13.81
2022-11-04T18:54:24.631Z,13.58
2022-11-04T18:56:53.426Z,13.68
2022-11-04T18:59:22.227Z,13.70
2022-11-04T19:01:52.476Z,13.82
2022-11-04T19:04:21.488Z,13.82
2022-11-04T19:06:50.424Z,14.10
2022-11-04T19:09:45.286Z,14.24
2022-11-04T19:12:27.265Z,14.28
2022-11-04T19:14:56.215Z,14.27
2022-11-04T19:17:25.282Z,14.17
2022-11-04T19:19:54.141Z,14.56
2022-11-04T19:22:22.999Z,14.81
2022-11-04T19:24:51.788Z,15.06
2022-11-04T19:27:24.884Z,15.30
2022-11-04T19:29:53.926Z,15.38
2022-11-04T19:32:22.820Z,14.67
2022-11-04T19:34:51.641Z,14.39
2022-11-04T19:37:20.556Z,14.25
2022-11-04T19:39:49.413Z,14.16
2022-11-04T19:42:35.868Z,13.49
2022-11-04T19:45:06.850Z,13.49
2022-11-04T19:47:35.751Z,13.52
2022-11-04T19:50:04.908Z,13.59
2022-11-04T19:52:33.717Z,13.65
2022-11-04T19:55:03.231Z,13.67
2022-11-04T19:57:32.437Z,13.46
2022-11-04T20:00:01.981Z,12.88
2022-11-04T20:02:42.079Z,12.98
2022-11-04T20:05:11.070Z,13.15
2022-11-04T20:07:39.900Z,13.44
2022-11-04T20:10:10.145Z,13.41
2022-11-04T20:12:56.716Z,13.24
2022-11-04T20:15:26.353Z,13.14
2022-11-04T20:17:56.636Z,13.22
2022-11-04T20:20:25.486Z,13.28
2022-11-04T20:22:54.502Z,13.22
2022-11-04T20:25:23.288Z,13.33
2022-11-04T20:27:52.133Z,13.28
2022-11-04T20:30:21.123Z,13.16
2022-11-04T20:32:50.005Z,13.16
2022-11-04T20:35:20.956Z,13.26
2022-11-04T20:37:50.350Z,13.27
2022-11-04T20:40:19.476Z,13.47
2022-11-04T20:42:48.777Z,13.67
2022-11-04T20:45:19.210Z,13.27
2022-11-04T20:47:48.670Z,13.41
2022-11-04T20:50:17.584Z,13.60
2022-11-04T20:52:47.779Z,13.53
2022-11-04T20:55:16.801Z,13.46
2022-11-04T20:57:45.611Z,13.29
2022-11-04T21:00:15.355Z,13.14
2022-11-04T21:02:44.307Z,13.04
2022-11-04T21:05:15.028Z,13.08
2022-11-04T21:07:43.874Z,13.30
2022-11-04T21:10:14.096Z,13.32
2022-11-04T21:12:43.060Z,13.33
2022-11-04T21:15:33.477Z,13.23
2022-11-04T21:18:02.366Z,12.92
2022-11-04T21:20:31.252Z,12.47
2022-11-04T21:23:00.133Z,11.84
2022-11-04T21:25:31.100Z,12.18
2022-11-04T21:28:00.170Z,12.28
2022-11-04T21:30:33.061Z,12.06
2022-11-04T21:33:03.295Z,12.13
2022-11-04T21:35:34.890Z,12.22
2022-11-04T21:38:04.835Z,12.13
2022-11-04T21:40:35.383Z,12.07
2022-11-04T21:43:04.351Z,12.23
2022-11-04T21:45:34.906Z,12.36
2022-11-04T21:48:04.337Z,12.06
2022-11-04T21:50:33.256Z,12.11
2022-11-04T21:53:02.110Z,11.86
2022-11-04T21:55:30.951Z,12.13
2022-11-04T21:58:02.122Z,12.12
2022-11-04T22:00:30.922Z,11.13
2022-11-04T22:02:59.919Z,11.10
2022-11-04T22:05:29.489Z,11.31
2022-11-04T22:08:15.817Z,11.39
2022-11-04T22:10:50.741Z,11.72
2022-11-04T22:13:22.551Z,11.91
2022-11-04T22:16:00.830Z,11.97
2022-11-04T22:18:31.637Z,11.94
2022-11-04T22:21:04.119Z,12.01
2022-11-04T22:23:35.053Z,12.03
2022-11-04T22:26:05.700Z,11.78
2022-11-04T22:28:35.978Z,11.51
2022-11-04T22:31:09.097Z,11.47
2022-11-04T22:33:38.850Z,11.21
2022-11-04T22:36:08.541Z,10.98
2022-11-04T22:38:38.597Z,11.20
2022-11-04T22:41:09.827Z,10.36
2022-11-04T22:43:40.202Z,10.72
2022-11-04T22:46:12.791Z,10.89
2022-11-04T22:48:41.960Z,10.55
2022-11-04T22:51:11.195Z,10.64
2022-11-04T22:53:40.629Z,10.98
2022-11-04T22:56:12.346Z,11.29
2022-11-04T22:58:42.627Z,11.37
2022-11-04T23:01:13.881Z,11.16
2022-11-04T23:03:43.137Z,11.32
2022-11-04T23:06:12.160Z,11.09
2022-11-04T23:08:42.388Z,11.37
2022-11-04T23:11:34.255Z,11.44
2022-11-04T23:14:23.050Z,11.30
2022-11-04T23:17:10.029Z,11.27
2022-11-04T23:19:39.442Z,11.41
2022-11-04T23:22:26.352Z,11.03
2022-11-04T23:25:09.742Z,11.04
2022-11-04T23:27:59.017Z,10.99
2022-11-04T23:30:32.104Z,11.11
2022-11-04T23:33:03.227Z,11.12
2022-11-04T23:35:51.316Z,11.01
2022-11-04T23:38:20.911Z,10.98
2022-11-04T23:41:05.191Z,11.01
2022-11-04T23:43:34.196Z,11.02
2022-11-04T23:46:21.775Z,10.97
2022-11-04T23:49:08.325Z,10.90
2022-11-04T23:51:54.446Z,10.85
2022-11-04T23:54:40.892Z,10.85
2022-11-04T23:57:31.402Z,10.79
